Time;durP1;ratioP1;P1;durP2;ratioP2;P2;SDS_P1;SDS_P2;PMS_P1;PMS_P2;Temp;Humidity;BMP_temperature;BMP_pressure;BME280_temperature;BME280_humidity;BME280_pressure;Samples;Min_cycle;Max_cycle;Signal;HPM_P1;HPM_P2
2022/03/07 00:01:31;;;;;;;14.50;10.23;;;;;;;1.28;nan;102750.34;5071792;28;20040;-54
2022/03/07 00:03:57;;;;;;;17.08;10.38;;;;;;;0.95;nan;102717.16;5053502;28;20388;-54
2022/03/07 00:06:23;;;;;;;11.65;9.68;;;;;;;0.85;nan;102725.41;5052573;28;20111;-55
2022/03/07 00:08:49;;;;;;;15.20;10.77;;;;;;;0.53;nan;102707.78;5055369;28;20028;-54
2022/03/07 00:11:14;;;;;;;15.00;9.68;;;;;;;0.62;nan;102740.94;5051399;28;20036;-54
2022/03/07 00:13:40;;;;;;;15.20;9.95;;;;;;;0.26;nan;102714.50;5052230;28;20128;-52
2022/03/07 00:16:05;;;;;;;15.85;10.07;;;;;;;0.47;nan;102772.31;5051905;28;20033;-56
2022/03/07 00:18:31;;;;;;;18.00;9.30;;;;;;;0.36;nan;102766.72;5052549;28;20079;-55
2022/03/07 00:20:56;;;;;;;14.85;10.18;;;;;;;-0.05;nan;102709.81;5032691;28;20476;-54
2022/03/07 00:23:21;;;;;;;19.30;10.32;;;;;;;0.17;nan;102766.81;5032630;28;20035;-52
2022/03/07 00:25:47;;;;;;;17.40;10.07;;;;;;;0.09;nan;102767.34;5052106;28;20075;-52
2022/03/07 00:28:14;;;;;;;14.13;9.98;;;;;;;0.01;nan;102756.66;5052274;28;20480;-51
2022/03/07 00:30:40;;;;;;;14.38;10.45;;;;;;;-0.04;nan;102766.84;5052201;28;20025;-57
2022/03/07 00:33:05;;;;;;;13.80;10.23;;;;;;;-0.48;nan;102699.41;5052166;28;20063;-53
2022/03/07 00:35:30;;;;;;;12.32;10.25;;;;;;;-0.13;nan;102770.72;5052424;28;20082;-55
2022/03/07 00:37:56;;;;;;;16.65;10.50;;;;;;;-0.29;nan;102747.63;5034313;28;20086;-53
2022/03/07 00:40:21;;;;;;;16.90;10.82;;;;;;;-0.70;nan;102696.75;5052163;28;20025;-54
2022/03/07 00:42:47;;;;;;;13.93;11.15;;;;;;;-0.40;nan;102762.69;5052212;28;20099;-52
2022/03/07 00:45:12;;;;;;;14.43;10.90;;;;;;;-0.38;nan;102773.13;5052091;28;20033;-53
2022/03/07 00:47:38;;;;;;;15.68;11.10;;;;;;;-0.53;nan;102757.81;5055040;28;20488;-53
2022/03/07 00:50:05;;;;;;;17.73;10.75;;;;;;;-0.51;nan;102769.13;5071946;28;20526;-56
2022/03/07 00:52:30;;;;;;;19.73;11.55;;;;;;;-0.64;nan;102764.22;5047218;28;20400;-55
2022/03/07 00:54:55;;;;;;;14.32;10.80;;;;;;;-0.62;nan;102784.19;5034121;28;20036;-52
2022/03/07 00:57:21;;;;;;;16.65;10.68;;;;;;;-0.83;nan;102756.47;5051769;28;20075;-55
2022/03/07 00:59:46;;;;;;;15.93;10.90;;;;;;;-0.74;nan;102781.06;5051681;28;20067;-50
2022/03/07 01:02:11;;;;;;;17.52;11.20;;;;;;;-1.03;nan;102741.78;5033762;28;20045;-56
2022/03/07 01:04:37;;;;;;;17.42;11.18;;;;;;;-0.87;nan;102786.47;5051679;28;20035;-54
2022/03/07 01:07:03;;;;;;;15.27;11.82;;;;;;;-1.35;nan;102705.06;5033752;28;20473;-54
2022/03/07 01:09:29;;;;;;;12.80;10.57;;;;;;;-1.88;nan;102643.19;5034068;28;20037;-55
2022/03/07 01:11:54;;;;;;;15.50;11.00;;;;;;;-1.06;nan;102776.13;5033633;28;20063;-56
2022/03/07 01:14:20;;;;;;;15.10;11.38;;;;;;;-1.22;nan;102766.78;5051673;28;20136;-57
2022/03/07 01:16:46;;;;;;;17.27;11.45;;;;;;;-1.14;nan;102773.19;5033698;28;20045;-52
2022/03/07 01:19:12;;;;;;;16.58;11.10;;;;;;;-1.17;nan;102775.63;5034020;28;20095;-55
2022/03/07 01:21:39;;;;;;;14.63;11.32;;;;;;;-1.62;nan;102701.19;5050338;28;20564;-54
2022/03/07 01:24:04;;;;;;;18.17;11.82;;;;;;;-1.24;nan;102783.03;5051644;28;20061;-53
2022/03/07 01:26:30;;;;;;;18.35;12.23;;;;;;;-1.28;nan;102778.53;5051666;28;20071;-55
2022/03/07 01:28:56;;;;;;;20.67;12.68;;;;;;;-1.63;nan;102732.13;5051362;28;20632;-56
2022/03/07 01:31:21;;;;;;;17.83;12.13;;;;;;;-1.44;nan;102766.63;5051414;28;20033;-52
2022/03/07 01:33:46;;;;;;;14.65;11.48;;;;;;;-1.44;nan;102779.53;5051555;28;20049;-55
2022/03/07 01:36:12;;;;;;;16.70;12.23;;;;;;;-1.51;nan;102772.31;5057732;28;20119;-54
2022/03/07 01:38:38;;;;;;;15.05;11.45;;;;;;;-1.55;nan;102762.66;5071617;28;20319;-54
2022/03/07 01:41:04;;;;;;;15.30;10.75;;;;;;;-1.82;nan;102720.94;5066113;28;20533;-55
2022/03/07 01:43:30;;;;;;;15.55;12.45;;;;;;;-1.90;nan;102711.06;5050994;28;20033;-55
2022/03/07 01:45:55;;;;;;;14.88;11.77;;;;;;;-1.89;nan;102716.28;5050650;28;20029;-53
2022/03/07 01:48:21;;;;;;;16.45;11.45;;;;;;;-1.96;nan;102703.91;5036755;28;20181;-54
2022/03/07 01:50:46;;;;;;;15.52;12.02;;;;;;;-1.60;nan;102770.97;5053181;28;20029;-54
2022/03/07 01:53:12;;;;;;;19.08;12.00;;;;;;;-1.77;nan;102762.44;5051714;28;20033;-52
2022/03/07 01:55:37;;;;;;;17.83;12.40;;;;;;;-1.62;nan;102790.69;5054992;28;20029;-54
2022/03/07 01:58:03;;;;;;;16.30;11.98;;;;;;;-1.64;nan;102787.16;5053554;28;20128;-52
2022/03/07 02:00:29;;;;;;;23.25;12.05;;;;;;;-1.86;nan;102751.66;5036834;28;20037;-57
2022/03/07 02:02:54;;;;;;;24.33;12.30;;;;;;;-1.71;nan;102776.53;5053636;28;20403;-54
2022/03/07 02:05:20;;;;;;;17.52;12.40;;;;;;;-1.94;nan;102738.41;5054899;28;20029;-56
2022/03/07 02:07:45;;;;;;;20.17;12.90;;;;;;;-2.05;nan;102711.19;5036936;28;20502;-54
2022/03/07 02:10:11;;;;;;;18.90;12.48;;;;;;;-2.09;nan;102701.53;5036878;28;20436;-54
2022/03/07 02:12:37;;;;;;;17.50;13.55;;;;;;;-1.95;nan;102708.22;5054605;28;20039;-54
2022/03/07 02:15:03;;;;;;;17.50;13.57;;;;;;;-1.66;nan;102744.91;5054625;28;20049;-55
2022/03/07 02:17:29;;;;;;;22.50;13.88;;;;;;;-1.51;nan;102756.81;5020495;28;20041;-55
2022/03/07 02:19:54;;;;;;;23.98;13.85;;;;;;;-1.43;nan;102762.34;5054655;28;20040;-54
2022/03/07 02:22:21;;;;;;;17.90;12.60;;;;;;;-1.31;nan;102766.38;5036954;28;20389;-56
2022/03/07 02:24:47;;;;;;;23.55;13.15;;;;;;;-1.61;nan;102686.59;5054231;28;20033;-58
2022/03/07 02:27:12;;;;;;;22.00;13.50;;;;;;;-1.05;nan;102754.63;5069491;28;20064;-55
2022/03/07 02:29:38;;;;;;;18.85;13.15;;;;;;;-1.04;nan;102742.59;5074306;28;20518;-57
2022/03/07 02:32:05;;;;;;;23.23;13.23;;;;;;;-1.22;nan;102684.09;5074770;28;20036;-56
2022/03/07 02:34:30;;;;;;;17.15;13.15;;;;;;;-0.74;nan;102749.13;5056361;28;20067;-55
2022/03/07 02:36:56;;;;;;;16.85;11.88;;;;;;;-0.90;nan;102700.13;5056480;28;20445;-55
2022/03/07 02:39:21;;;;;;;20.83;12.23;;;;;;;-0.49;nan;102751.94;5074056;28;20037;-55
2022/03/07 02:41:47;;;;;;;21.92;12.43;;;;;;;-0.82;nan;102685.88;5044445;28;20473;-55
2022/03/07 02:44:13;;;;;;;18.00;12.45;;;;;;;-0.35;nan;102747.38;5052741;28;20029;-54
2022/03/07 02:46:38;;;;;;;18.63;11.55;;;;;;;-0.73;nan;102675.91;5054352;28;20025;-56
2022/03/07 02:49:04;;;;;;;17.13;11.35;;;;;;;-0.67;nan;102668.38;5053036;28;20041;-53
2022/03/07 02:51:30;;;;;;;18.40;11.35;;;;;;;-0.19;nan;102745.47;5053977;28;20033;-56
2022/03/07 02:53:55;;;;;;;12.23;10.43;;;;;;;-0.51;nan;102675.09;5053741;28;20041;-55
2022/03/07 02:56:21;;;;;;;17.52;11.40;;;;;;;-0.19;nan;102719.59;5053800;28;20074;-54
2022/03/07 02:58:46;;;;;;;19.05;12.43;;;;;;;-0.17;nan;102717.94;5034553;28;20041;-52
2022/03/07 03:01:12;;;;;;;22.35;12.50;;;;;;;0.02;nan;102735.13;5035961;28;20200;-56
2022/03/07 03:03:37;;;;;;;17.25;11.68;;;;;;;0.05;nan;102726.59;5035908;28;20039;-54
2022/03/07 03:06:03;;;;;;;15.82;11.65;;;;;;;0.12;nan;102726.88;5035725;28;20129;-52
2022/03/07 03:08:28;;;;;;;21.02;11.52;;;;;;;0.16;nan;102744.31;5053703;28;20033;-56
2022/03/07 03:10:55;;;;;;;21.77;11.60;;;;;;;-0.12;nan;102677.59;5053320;28;20495;-54
2022/03/07 03:13:22;;;;;;;22.77;11.38;;;;;;;-0.17;nan;102667.88;5035530;28;20028;-56
2022/03/07 03:15:49;;;;;;;15.52;11.38;;;;;;;0.24;nan;102731.66;5062805;28;20565;-55
2022/03/07 03:18:15;;;;;;;28.25;12.13;;;;;;;0.25;nan;102738.63;5073272;28;20047;-52
2022/03/07 03:20:42;;;;;;;14.98;11.02;;;;;;;0.30;nan;102737.09;5055321;28;20033;-56
2022/03/07 03:23:07;;;;;;;15.45;10.60;;;;;;;-0.18;nan;102648.91;5055391;28;20031;-54
2022/03/07 03:25:32;;;;;;;18.67;11.23;;;;;;;0.32;nan;102731.16;5073000;28;20033;-55
2022/03/07 03:27:58;;;;;;;19.35;11.20;;;;;;;0.32;nan;102719.94;5054972;28;20045;-54
2022/03/07 03:30:23;;;;;;;15.50;11.85;;;;;;;0.29;nan;102717.22;5055381;28;20044;-56
2022/03/07 03:32:49;;;;;;;14.32;10.82;;;;;;;0.23;nan;102709.22;5072906;28;20086;-54
2022/03/07 03:35:14;;;;;;;16.35;11.60;;;;;;;0.32;nan;102727.69;5073162;28;20033;-54
2022/03/07 03:37:40;;;;;;;17.77;11.82;;;;;;;0.34;nan;102731.22;5073103;28;20538;-54
2022/03/07 03:40:09;;;;;;;16.33;12.10;;;;;;;0.32;nan;102722.53;5072950;28;20086;-54
2022/03/07 03:42:34;;;;;;;19.23;11.98;;;;;;;-0.01;nan;102662.50;5054464;28;20080;-57
2022/03/07 03:45:00;;;;;;;15.60;11.85;;;;;;;0.34;nan;102715.69;5034866;28;20064;-54
2022/03/07 03:47:25;;;;;;;14.98;11.20;;;;;;;0.38;nan;102738.31;5053162;28;20115;-55
2022/03/07 03:49:51;;;;;;;18.38;11.23;;;;;;;0.38;nan;102715.84;5034831;28;20036;-55
2022/03/07 03:52:16;;;;;;;19.17;12.70;;;;;;;0.29;nan;102686.13;5052645;28;20071;-55
2022/03/07 03:54:42;;;;;;;17.85;11.25;;;;;;;0.35;nan;102723.50;5034776;28;20044;-54
2022/03/07 03:57:07;;;;;;;17.25;11.82;;;;;;;0.33;nan;102719.09;5052810;28;20032;-55
2022/03/07 03:59:33;;;;;;;14.60;10.90;;;;;;;0.28;nan;102712.84;5053117;28;20461;-53
2022/03/07 04:01:58;;;;;;;16.33;11.68;;;;;;;0.27;nan;102724.03;5052571;28;20102;-52
2022/03/07 04:04:24;;;;;;;12.90;10.73;;;;;;;0.19;nan;102713.38;5034782;28;20174;-55
2022/03/07 04:06:49;;;;;;;20.52;12.32;;;;;;;0.30;nan;102726.72;5070310;28;20040;-52
2022/03/07 04:09:19;;;;;;;19.70;12.45;;;;;;;0.31;nan;102726.81;5072439;28;20074;-53
2022/03/07 04:11:45;;;;;;;16.77;10.77;;;;;;;-0.07;nan;102650.22;5072219;28;20047;-53
2022/03/07 04:14:11;;;;;;;13.88;11.02;;;;;;;0.38;nan;102720.16;5054433;28;20306;-55
2022/03/07 04:16:38;;;;;;;13.80;11.40;;;;;;;0.29;nan;102712.03;5072471;28;20163;-55
2022/03/07 04:19:04;;;;;;;17.85;11.23;;;;;;;0.32;nan;102707.84;5037960;28;20042;-53
2022/03/07 04:21:30;;;;;;;12.95;11.23;;;;;;;0.02;nan;102654.88;5072163;28;20035;-55
2022/03/07 04:23:55;;;;;;;20.17;12.13;;;;;;;0.34;nan;102720.88;5072074;28;20036;-54
2022/03/07 04:26:20;;;;;;;13.90;10.98;;;;;;;0.33;nan;102722.56;5072226;28;20051;-55
2022/03/07 04:28:46;;;;;;;17.77;11.15;;;;;;;-0.04;nan;102660.69;5071982;28;20469;-55
2022/03/07 04:31:11;;;;;;;15.35;10.75;;;;;;;0.10;nan;102678.47;5054054;28;20046;-56
2022/03/07 04:33:37;;;;;;;14.82;11.32;;;;;;;0.32;nan;102719.94;5071977;28;20427;-56
2022/03/07 04:36:03;;;;;;;16.88;12.43;;;;;;;0.28;nan;102718.03;5054238;28;20040;-56
2022/03/07 04:38:28;;;;;;;17.95;11.65;;;;;;;0.22;nan;102725.56;5072229;28;20032;-52
2022/03/07 04:40:54;;;;;;;15.25;11.68;;;;;;;-0.24;nan;102661.59;5033755;28;20586;-57
2022/03/07 04:43:20;;;;;;;15.20;11.35;;;;;;;0.08;nan;102719.84;5052081;28;20086;-53
2022/03/07 04:45:45;;;;;;;14.85;12.18;;;;;;;-0.01;nan;102719.47;5051977;28;20089;-55
2022/03/07 04:48:11;;;;;;;16.33;11.90;;;;;;;-0.09;nan;102733.81;5052153;28;20453;-55
2022/03/07 04:50:36;;;;;;;15.52;11.60;;;;;;;-0.52;nan;102668.16;5051990;28;20032;-55
2022/03/07 04:53:01;;;;;;;13.75;12.20;;;;;;;-0.18;nan;102733.44;5033954;28;20040;-55
2022/03/07 04:55:27;;;;;;;15.77;11.65;;;;;;;-0.30;nan;102720.88;5037353;28;20041;-53
2022/03/07 04:57:52;;;;;;;18.27;12.25;;;;;;;-0.39;nan;102699.78;5053777;28;20411;-51
2022/03/07 05:00:18;;;;;;;20.40;12.50;;;;;;;-0.51;nan;102691.50;5072011;28;20464;-54
2022/03/07 05:02:44;;;;;;;16.23;12.30;;;;;;;-0.29;nan;102732.13;5071983;28;20029;-54
2022/03/07 05:05:09;;;;;;;15.52;12.63;;;;;;;-0.32;nan;102735.44;5054104;28;20044;-56
2022/03/07 05:07:34;;;;;;;12.70;11.10;;;;;;;-0.40;nan;102723.00;5053911;28;20040;-55
2022/03/07 05:10:00;;;;;;;17.15;12.23;;;;;;;-0.58;nan;102715.34;5071560;28;20076;-53
2022/03/07 05:12:25;;;;;;;16.85;11.57;;;;;;;-0.61;nan;102725.56;5071697;28;20029;-55
2022/03/07 05:14:51;;;;;;;14.80;12.20;;;;;;;-0.72;nan;102727.69;5053612;28;20086;-55
2022/03/07 05:17:16;;;;;;;16.95;12.70;;;;;;;-0.81;nan;102727.28;5071871;28;20120;-56
2022/03/07 05:19:42;;;;;;;18.35;13.63;;;;;;;-0.97;nan;102703.28;5071846;28;20037;-55
2022/03/07 05:22:09;;;;;;;15.10;12.65;;;;;;;-1.36;nan;102666.22;5073478;28;20123;-54
2022/03/07 05:24:34;;;;;;;17.15;12.90;;;;;;;-1.39;nan;102676.41;5075837;28;20044;-52
2022/03/07 05:27:00;;;;;;;19.77;13.60;;;;;;;-2.22;nan;102546.09;5075700;28;20372;-52
2022/03/07 05:29:25;;;;;;;16.85;12.35;;;;;;;-1.22;nan;102737.47;5057445;28;20036;-57
2022/03/07 05:31:51;;;;;;;18.75;13.60;;;;;;;-1.37;nan;102721.31;5075388;28;20040;-52
2022/03/07 05:34:16;;;;;;;16.73;13.35;;;;;;;-1.52;nan;102703.41;5075221;28;20078;-53
2022/03/07 05:36:41;;;;;;;16.27;12.75;;;;;;;-1.42;nan;102727.94;5057381;28;20075;-52
2022/03/07 05:39:07;;;;;;;16.88;13.93;;;;;;;-1.47;nan;102734.59;5057326;28;20078;-56
2022/03/07 05:41:32;;;;;;;23.48;14.07;;;;;;;-1.62;nan;102724.44;5065462;28;20037;-53
2022/03/07 05:43:57;;;;;;;19.27;14.45;;;;;;;-1.62;nan;102726.13;5037185;28;20126;-54
2022/03/07 05:46:23;;;;;;;19.35;13.63;;;;;;;-1.68;nan;102737.06;5069644;28;20032;-54
2022/03/07 05:48:48;;;;;;;21.98;14.77;;;;;;;-1.75;nan;102729.81;5075247;28;20029;-55
2022/03/07 05:51:15;;;;;;;18.27;14.27;;;;;;;-1.67;nan;102754.34;5074873;28;20066;-55
2022/03/07 05:53:41;;;;;;;20.23;13.85;;;;;;;-1.76;nan;102738.41;5075353;28;20037;-51
2022/03/07 05:56:06;;;;;;;18.23;13.93;;;;;;;-1.79;nan;102751.16;5074802;28;20086;-52
2022/03/07 05:58:32;;;;;;;21.33;13.98;;;;;;;-1.78;nan;102761.53;5074866;28;20074;-53
2022/03/07 06:00:57;;;;;;;17.35;14.85;;;;;;;-1.91;nan;102743.72;5074823;28;20039;-54
2022/03/07 06:03:22;;;;;;;18.20;13.68;;;;;;;-2.00;nan;102737.22;5074809;28;20025;-58
2022/03/07 06:05:48;;;;;;;16.88;13.82;;;;;;;-2.09;nan;102721.28;5074684;28;20036;-54
2022/03/07 06:08:13;;;;;;;16.27;13.40;;;;;;;-1.93;nan;102757.34;5074610;28;20031;-53
2022/03/07 06:10:38;;;;;;;19.73;14.15;;;;;;;-1.87;nan;102757.66;5056826;28;20048;-54
2022/03/07 06:13:04;;;;;;;19.65;13.10;;;;;;;-2.05;nan;102708.63;5074612;28;20032;-54
2022/03/07 06:15:29;;;;;;;18.52;14.10;;;;;;;-1.79;nan;102746.88;5074512;28;20044;-52
2022/03/07 06:17:57;;;;;;;18.05;13.57;;;;;;;-1.93;nan;102711.78;5074341;28;20028;-53
2022/03/07 06:20:24;;;;;;;18.70;13.95;;;;;;;-1.97;nan;102711.56;5074549;28;20028;-55
2022/03/07 06:22:50;;;;;;;19.08;12.63;;;;;;;-1.64;nan;102769.06;5074301;28;20480;-57
2022/03/07 06:25:15;;;;;;;18.45;13.55;;;;;;;-1.73;nan;102759.19;5074795;28;20047;-55
2022/03/07 06:27:41;;;;;;;17.13;14.35;;;;;;;-1.91;nan;102728.22;5074508;28;20037;-53
2022/03/07 06:30:12;;;;;;;19.38;13.95;;;;;;;-1.64;nan;102774.25;5038223;28;20041;-55
2022/03/07 06:32:40;;;;;;;22.73;13.63;;;;;;;-1.69;nan;102763.69;5056478;28;20496;-54
2022/03/07 06:35:08;;;;;;;20.20;14.63;;;;;;;-1.59;nan;102772.75;5062675;28;20041;-57
2022/03/07 06:37:34;;;;;;;18.95;13.40;;;;;;;-1.54;nan;102777.31;5078087;28;20033;-53
2022/03/07 06:39:59;;;;;;;17.73;13.55;;;;;;;-1.84;nan;102712.19;5056537;28;20036;-55
2022/03/07 06:42:24;;;;;;;20.40;13.88;;;;;;;-1.43;nan;102777.84;5073397;28;20102;-56
2022/03/07 06:44:50;;;;;;;22.45;14.43;;;;;;;-1.74;nan;102718.69;5033501;28;20356;-54
2022/03/07 06:47:16;;;;;;;19.95;15.05;;;;;;;-1.32;nan;102772.38;5052790;28;20366;-57
2022/03/07 06:49:45;;;;;;;16.80;14.13;;;;;;;-1.58;nan;102720.31;5053522;28;20056;-53
2022/03/07 06:52:11;;;;;;;19.98;15.00;;;;;;;-1.46;nan;102713.13;5053614;28;20064;-56
2022/03/07 06:54:37;;;;;;;19.88;13.52;;;;;;;-1.11;nan;102767.31;5034676;28;20598;-52
2022/03/07 06:57:03;;;;;;;18.05;14.60;;;;;;;-1.07;nan;102768.28;5053297;28;20036;-57
2022/03/07 06:59:29;;;;;;;21.65;14.85;;;;;;;-0.99;nan;102778.16;5035758;28;20408;-55
2022/03/07 07:01:55;;;;;;;20.13;13.95;;;;;;;-0.88;nan;102776.97;5035865;28;20033;-61
2022/03/07 07:04:20;;;;;;;18.75;13.60;;;;;;;-0.64;nan;102790.06;5036097;28;20039;-55
2022/03/07 07:06:46;;;;;;;19.00;14.50;;;;;;;-0.51;nan;102791.50;5035763;28;20036;-55
2022/03/07 07:09:11;;;;;;;16.17;13.55;;;;;;;-0.83;nan;102722.88;5036022;28;20039;-51
2022/03/07 07:11:36;;;;;;;17.67;13.63;;;;;;;-0.45;nan;102784.00;5036237;28;20037;-55
2022/03/07 07:14:03;;;;;;;16.67;13.10;;;;;;;-0.32;nan;102794.09;5035712;28;20073;-58
2022/03/07 07:16:28;;;;;;;15.90;13.18;;;;;;;-0.54;nan;102727.59;5053528;28;20037;-57
2022/03/07 07:18:54;;;;;;;17.63;12.63;;;;;;;-0.35;nan;102749.97;5053457;28;20389;-54
2022/03/07 07:21:19;;;;;;;16.25;13.05;;;;;;;0.08;nan;102794.94;5035572;28;20111;-55
2022/03/07 07:23:44;;;;;;;14.63;12.05;;;;;;;0.31;nan;102783.78;5053363;28;20029;-58
2022/03/07 07:26:10;;;;;;;13.93;11.40;;;;;;;0.40;nan;102784.16;5053181;28;20037;-56
2022/03/07 07:28:36;;;;;;;15.63;12.20;;;;;;;0.56;nan;102790.81;5018918;28;20036;-57
2022/03/07 07:31:01;;;;;;;14.48;11.52;;;;;;;0.32;nan;102731.16;5053474;28;20043;-54
2022/03/07 07:33:26;;;;;;;14.10;11.10;;;;;;;0.86;nan;102794.59;5053221;28;20476;-54
2022/03/07 07:35:52;;;;;;;13.52;11.02;;;;;;;1.24;nan;102808.09;5035178;28;20135;-59
2022/03/07 07:38:19;;;;;;;14.48;10.35;;;;;;;1.55;nan;102808.38;5053333;28;20033;-57
2022/03/07 07:40:44;;;;;;;13.48;9.38;;;;;;;1.80;nan;102812.72;5053224;28;20095;-54
2022/03/07 07:43:09;;;;;;;13.68;10.30;;;;;;;1.86;nan;102813.84;5053096;28;20444;-55
2022/03/07 07:45:35;;;;;;;13.05;9.40;;;;;;;2.18;nan;102814.91;5034779;28;20029;-57
2022/03/07 07:48:01;;;;;;;10.98;9.85;;;;;;;2.51;nan;102835.94;5035194;28;20037;-55
2022/03/07 07:50:27;;;;;;;10.52;8.90;;;;;;;2.54;nan;102831.69;5034849;28;20029;-56
2022/03/07 07:52:55;;;;;;;15.32;9.93;;;;;;;2.20;nan;102790.75;5035132;28;20044;-55
2022/03/07 07:55:20;;;;;;;16.40;10.48;;;;;;;2.07;nan;102790.31;5052929;28;20047;-59
2022/03/07 07:57:46;;;;;;;13.85;10.30;;;;;;;2.39;nan;102833.81;5035053;28;20037;-57
2022/03/07 08:00:15;;;;;;;11.75;10.55;;;;;;;2.24;nan;102826.41;5052765;28;20025;-54
2022/03/07 08:02:41;;;;;;;12.05;10.20;;;;;;;1.93;nan;102775.94;5052615;28;20067;-56
2022/03/07 08:05:07;;;;;;;11.88;10.00;;;;;;;2.43;nan;102840.84;5052494;28;20056;-58
2022/03/07 08:07:34;;;;;;;14.55;10.40;;;;;;;2.83;nan;102843.03;5034808;28;20119;-56
2022/03/07 08:10:00;;;;;;;10.75;9.18;;;;;;;3.33;nan;102847.09;5052650;28;20040;-58
2022/03/07 08:12:26;;;;;;;11.75;9.05;;;;;;;3.61;nan;102776.78;5052462;28;20033;-57
2022/03/07 08:14:52;;;;;;;13.43;10.25;;;;;;;4.49;nan;102846.78;5052229;28;20057;-60
2022/03/07 08:17:17;;;;;;;11.25;8.27;;;;;;;4.37;nan;102859.53;5052508;28;20051;-54
2022/03/07 08:19:45;;;;;;;10.70;9.30;;;;;;;3.98;nan;102797.72;5052394;28;20400;-57
2022/03/07 08:22:10;;;;;;;8.98;8.13;;;;;;;4.20;nan;102806.09;5035148;28;20037;-53
2022/03/07 08:24:35;;;;;;;13.52;9.82;;;;;;;4.39;nan;102858.72;5034503;28;20033;-58
2022/03/07 08:27:01;;;;;;;11.93;9.40;;;;;;;4.68;nan;102851.59;5052289;28;20063;-55
2022/03/07 08:29:26;;;;;;;9.77;8.60;;;;;;;4.78;nan;102803.13;5034427;28;20037;-57
2022/03/07 08:31:52;;;;;;;10.25;9.20;;;;;;;5.48;nan;102861.22;5052345;28;20114;-53
2022/03/07 08:34:17;;;;;;;10.07;9.07;;;;;;;5.83;nan;102819.22;5052011;28;20057;-58
2022/03/07 08:36:42;;;;;;;8.93;8.02;;;;;;;6.66;nan;102868.63;5034601;28;20503;-52
2022/03/07 08:39:08;;;;;;;9.65;8.20;;;;;;;6.93;nan;102826.28;5052337;28;20476;-56
2022/03/07 08:41:34;;;;;;;9.80;7.68;;;;;;;7.32;nan;102847.78;5034430;28;20083;-54
2022/03/07 08:44:00;;;;;;;9.52;8.07;;;;;;;7.53;nan;102872.50;5034378;28;20032;-54
2022/03/07 08:46:25;;;;;;;7.57;6.88;;;;;;;7.65;nan;102856.88;5051975;28;20029;-58
2022/03/07 08:48:51;;;;;;;8.77;7.40;;;;;;;8.21;nan;102884.59;5051788;28;20037;-56
2022/03/07 08:51:17;;;;;;;8.23;7.20;;;;;;;8.39;nan;102866.47;5052317;28;20095;-58
2022/03/07 08:53:42;;;;;;;6.45;5.85;;;;;;;8.89;nan;102873.84;5052125;28;20037;-54
2022/03/07 08:56:08;;;;;;;6.97;6.28;;;;;;;9.17;nan;102872.25;5052051;28;20029;-55
2022/03/07 08:58:33;;;;;;;6.88;6.18;;;;;;;9.40;nan;102882.00;5056083;28;20033;-56
2022/03/07 09:00:59;;;;;;;6.93;6.22;;;;;;;9.16;nan;102826.72;5054918;28;20037;-55
2022/03/07 09:03:25;;;;;;;6.30;5.70;;;;;;;9.55;nan;102879.47;5056072;28;20065;-57
2022/03/07 09:05:50;;;;;;;6.13;5.53;;;;;;;9.61;nan;102815.50;5056289;28;20037;-54
2022/03/07 09:08:16;;;;;;;6.60;6.00;;;;;;;10.03;nan;102875.25;5038278;28;20056;-56
2022/03/07 09:10:41;;;;;;;6.40;5.70;;;;;;;9.91;nan;102819.97;5055294;28;20040;-59
2022/03/07 09:13:06;;;;;;;5.78;5.20;;;;;;;10.25;nan;102876.16;5055859;28;20039;-59
2022/03/07 09:15:32;;;;;;;6.75;5.47;;;;;;;10.26;nan;102849.88;5055765;28;20079;-57
2022/03/07 09:17:57;;;;;;;6.28;5.57;;;;;;;10.94;nan;102872.66;5037837;28;20032;-52
2022/03/07 09:20:23;;;;;;;4.85;4.45;;;;;;;11.45;nan;102872.50;5056160;28;20037;-55
2022/03/07 09:22:48;;;;;;;6.88;4.72;;;;;;;11.42;nan;102880.44;5037628;28;20033;-59
2022/03/07 09:25:14;;;;;;;7.80;4.97;;;;;;;;;;5038068;28;20044;-56
2022/03/07 09:27:40;;;;;;;5.50;4.22;;;;;;;11.63;nan;102867.16;5055540;28;20048;-55
2022/03/07 09:30:06;;;;;;;5.20;4.57;;;;;;;;;;5037652;28;20037;-53
2022/03/07 09:32:32;;;;;;;5.80;4.60;;;;;;;;;;5037444;28;20048;-57
2022/03/07 09:34:57;;;;;;;5.25;4.75;;;;;;;11.33;nan;102846.19;5055689;28;20481;-55
2022/03/07 09:37:22;;;;;;;5.45;4.68;;;;;;;11.61;nan;102849.59;5055460;28;20426;-57
2022/03/07 09:39:48;;;;;;;5.22;4.38;;;;;;;11.90;nan;102799.31;5055257;28;20541;-54
2022/03/07 09:42:13;;;;;;;4.68;4.28;;;;;;;12.15;nan;102851.94;5037538;28;20449;-55
2022/03/07 09:44:38;;;;;;;5.70;4.50;;;;;;;12.28;nan;102848.34;5038132;28;20566;-57
2022/03/07 09:47:04;;;;;;;6.38;5.00;;;;;;;12.34;nan;102806.03;5055026;28;20395;-53
2022/03/07 09:49:30;;;;;;;5.32;4.40;;;;;;;12.45;nan;102832.34;5037443;28;20048;-54
2022/03/07 09:51:56;;;;;;;4.75;4.22;;;;;;;12.08;nan;102846.72;5036966;28;20048;-54
2022/03/07 09:54:22;;;;;;;5.00;4.50;;;;;;;12.05;nan;102828.25;5052048;28;20032;-57
2022/03/07 09:56:48;;;;;;;6.20;4.15;;;;;;;12.24;nan;102845.72;5054449;28;20037;-58
2022/03/07 09:59:16;;;;;;;4.22;3.83;;;;;;;12.09;nan;102819.41;5053625;28;20052;-53
2022/03/07 10:01:41;;;;;;;4.32;3.72;;;;;;;11.51;nan;102771.38;5036086;28;20116;-59
2022/03/07 10:04:12;;;;;;;4.85;3.95;;;;;;;11.80;nan;102777.41;5052545;28;20104;-58
2022/03/07 10:06:37;;;;;;;4.05;3.67;;;;;;;12.16;nan;102819.38;5053968;28;20086;-58
2022/03/07 10:09:04;;;;;;;4.53;4.10;;;;;;;12.40;nan;102831.50;5052995;28;20116;-55
2022/03/07 10:11:31;;;;;;;7.70;4.05;;;;;;;12.19;nan;102760.38;5053876;28;20037;-56
2022/03/07 10:13:59;;;;;;;4.63;4.22;;;;;;;12.36;nan;102745.25;5054302;28;20131;-57
2022/03/07 10:16:35;;;;;;;5.07;4.68;;;;;;;12.38;nan;102739.06;5053431;28;20561;-59
2022/03/07 10:19:00;;;;;;;5.57;4.60;;;;;;;12.04;nan;102742.91;5053509;28;20032;-57
2022/03/07 10:21:27;;;;;;;5.13;4.45;;;;;;;12.06;nan;102740.25;5035898;28;20451;-57
2022/03/07 10:23:57;;;;;;;6.32;5.07;;;;;;;11.79;nan;102734.28;5053438;28;20033;-57
2022/03/07 10:26:23;;;;;;;6.35;5.32;;;;;;;12.27;nan;102804.31;5052694;28;20045;-58
2022/03/07 10:28:54;;;;;;;6.13;4.82;;;;;;;12.03;nan;102803.63;5053354;28;20029;-56
2022/03/07 10:31:20;;;;;;;5.80;5.20;;;;;;;12.35;nan;102797.19;5053985;28;20033;-56
2022/03/07 10:33:46;;;;;;;5.60;5.10;;;;;;;12.16;nan;102752.50;5053665;28;20546;-58
2022/03/07 10:36:12;;;;;;;6.75;5.25;;;;;;;12.42;nan;102784.81;5053366;28;20144;-54
2022/03/07 10:38:37;;;;;;;5.82;5.05;;;;;;;12.97;nan;102729.63;5035532;28;20116;-55
2022/03/07 10:41:04;;;;;;;5.78;5.25;;;;;;;12.95;nan;102737.56;5035353;28;20387;-58
2022/03/07 10:43:30;;;;;;;6.45;5.30;;;;;;;12.75;nan;102771.28;5051882;28;20068;-56
2022/03/07 10:45:57;;;;;;;6.20;5.00;;;;;;;13.06;nan;102729.50;5053135;28;20178;-58
2022/03/07 10:48:25;;;;;;;5.47;4.95;;;;;;;12.79;nan;102721.91;5051912;28;20116;-56
2022/03/07 10:50:56;;;;;;;5.45;4.97;;;;;;;13.63;nan;102778.13;5052912;28;20567;-55
2022/03/07 10:53:22;;;;;;;5.78;5.28;;;;;;;13.61;nan;102769.34;5035267;28;20037;-58
2022/03/07 10:55:55;;;;;;;5.50;5.00;;;;;;;13.31;nan;102781.19;5035021;28;20021;-55
2022/03/07 10:58:20;;;;;;;5.85;4.68;;;;;;;13.71;nan;102727.75;5035170;28;20112;-56
2022/03/07 11:00:48;;;;;;;5.20;4.65;;;;;;;14.32;nan;102706.41;5053001;28;20044;-60
2022/03/07 11:03:23;;;;;;;4.57;4.20;;;;;;;14.87;nan;102695.63;5052982;28;20040;-59
2022/03/07 11:05:49;;;;;;;5.63;4.60;;;;;;;14.83;nan;102763.72;5034942;28;20040;-60
2022/03/07 11:08:15;;;;;;;6.55;5.90;;;;;;;14.10;nan;102743.84;5051401;28;20063;-56
2022/03/07 11:10:54;;;;;;;5.30;4.80;;;;;;;14.15;nan;102743.78;5052595;28;20416;-56
2022/03/07 11:13:26;;;;;;;5.38;4.82;;;;;;;14.27;nan;102751.53;5052537;28;20029;-60
2022/03/07 11:15:53;;;;;;;5.10;4.60;;;;;;;13.95;nan;102716.78;5052634;28;20053;-51
2022/03/07 11:18:19;;;;;;;5.25;4.72;;;;;;;13.68;nan;102755.13;5052655;28;20029;-58
2022/03/07 11:20:45;;;;;;;4.72;4.32;;;;;;;14.05;nan;102698.03;5051440;28;20501;-56
2022/03/07 11:23:12;;;;;;;5.15;4.65;;;;;;;14.82;nan;102761.13;5052504;28;20037;-56
2022/03/07 11:25:38;;;;;;;6.97;5.00;;;;;;;15.41;nan;102752.78;5034674;28;20033;-57
2022/03/07 11:28:04;;;;;;;5.35;4.85;;;;;;;14.88;nan;102753.94;5052166;28;20194;-55